sensor_id;sensor_type;location;lat;lon;timestamp;temperature;humidity
27413;DHT22;14871;52.702;5.230;2023-08-20T00:01:24;21.40;99.90
27413;DHT22;14871;52.702;5.230;2023-08-20T00:03:51;21.40;99.90
27413;DHT22;14871;52.702;5.230;2023-08-20T00:06:18;21.40;99.90
27413;DHT22;14871;52.702;5.230;2023-08-20T00:08:44;21.30;99.90
27413;DHT22;14871;52.702;5.230;2023-08-20T00:11:10;21.30;99.90
27413;DHT22;14871;52.702;5.230;2023-08-20T00:13:36;21.40;99.90
27413;DHT22;14871;52.702;5.230;2023-08-20T00:16:02;21.40;99.90
27413;DHT22;14871;52.702;5.230;2023-08-20T00:18:29;21.40;99.90
27413;DHT22;14871;52.702;5.230;2023-08-20T00:20:54;21.30;99.90
27413;DHT22;14871;52.702;5.230;2023-08-20T00:23:21;21.30;99.90
27413;DHT22;14871;52.702;5.230;2023-08-20T00:25:46;21.20;99.90
27413;DHT22;14871;52.702;5.230;2023-08-20T00:28:12;21.20;99.90
27413;DHT22;14871;52.702;5.230;2023-08-20T00:30:38;21.20;99.90
27413;DHT22;14871;52.702;5.230;2023-08-20T00:33:04;21.30;99.90
27413;DHT22;14871;52.702;5.230;2023-08-20T00:35:29;21.30;99.90
27413;DHT22;14871;52.702;5.230;2023-08-20T00:37:55;21.30;99.90
27413;DHT22;14871;52.702;5.230;2023-08-20T00:40:20;21.30;99.90
27413;DHT22;14871;52.702;5.230;2023-08-20T00:42:46;21.30;99.90
27413;DHT22;14871;52.702;5.230;2023-08-20T00:45:12;21.20;99.90
27413;DHT22;14871;52.702;5.230;2023-08-20T00:47:38;21.10;99.90
27413;DHT22;14871;52.702;5.230;2023-08-20T00:50:04;21.00;99.90
27413;DHT22;14871;52.702;5.230;2023-08-20T00:52:34;21.10;99.90
27413;DHT22;14871;52.702;5.230;2023-08-20T00:54:59;21.10;99.90
27413;DHT22;14871;52.702;5.230;2023-08-20T00:57:26;21.20;99.90
27413;DHT22;14871;52.702;5.230;2023-08-20T00:59:54;21.10;99.90
27413;DHT22;14871;52.702;5.230;2023-08-20T01:02:20;21.10;99.90
27413;DHT22;14871;52.702;5.230;2023-08-20T01:04:47;21.10;99.90
27413;DHT22;14871;52.702;5.230;2023-08-20T01:07:39;21.00;99.90
27413;DHT22;14871;52.702;5.230;2023-08-20T01:10:09;20.90;99.90
27413;DHT22;14871;52.702;5.230;2023-08-20T01:12:37;21.00;99.90
27413;DHT22;14871;52.702;5.230;2023-08-20T01:15:04;20.80;99.90
27413;DHT22;14871;52.702;5.230;2023-08-20T01:17:30;20.90;99.90
27413;DHT22;14871;52.702;5.230;2023-08-20T01:19:56;20.90;99.90
27413;DHT22;14871;52.702;5.230;2023-08-20T01:22:40;21.00;99.90
27413;DHT22;14871;52.702;5.230;2023-08-20T01:25:37;20.90;99.90
27413;DHT22;14871;52.702;5.230;2023-08-20T01:28:29;20.90;99.90
27413;DHT22;14871;52.702;5.230;2023-08-20T01:30:59;21.00;99.90
27413;DHT22;14871;52.702;5.230;2023-08-20T01:33:26;20.90;99.90
27413;DHT22;14871;52.702;5.230;2023-08-20T01:35:53;20.80;99.90
27413;DHT22;14871;52.702;5.230;2023-08-20T01:38:19;20.90;99.90
27413;DHT22;14871;52.702;5.230;2023-08-20T01:40:45;20.80;99.90
27413;DHT22;14871;52.702;5.230;2023-08-20T01:43:11;20.70;99.90
27413;DHT22;14871;52.702;5.230;2023-08-20T01:45:36;20.60;99.90
27413;DHT22;14871;52.702;5.230;2023-08-20T01:48:02;20.60;99.90
27413;DHT22;14871;52.702;5.230;2023-08-20T01:50:29;20.70;99.90
27413;DHT22;14871;52.702;5.230;2023-08-20T01:52:55;20.70;99.90
27413;DHT22;14871;52.702;5.230;2023-08-20T01:55:20;20.70;99.90
27413;DHT22;14871;52.702;5.230;2023-08-20T01:57:46;20.60;99.90
27413;DHT22;14871;52.702;5.230;2023-08-20T02:00:12;20.60;99.90
27413;DHT22;14871;52.702;5.230;2023-08-20T02:02:38;20.60;99.90
27413;DHT22;14871;52.702;5.230;2023-08-20T02:05:04;20.60;99.90
27413;DHT22;14871;52.702;5.230;2023-08-20T02:07:29;20.60;99.90
27413;DHT22;14871;52.702;5.230;2023-08-20T02:09:55;20.50;99.90
27413;DHT22;14871;52.702;5.230;2023-08-20T02:12:21;20.50;99.90
27413;DHT22;14871;52.702;5.230;2023-08-20T02:14:47;20.50;99.90
27413;DHT22;14871;52.702;5.230;2023-08-20T02:17:12;20.60;99.90
27413;DHT22;14871;52.702;5.230;2023-08-20T02:19:39;20.60;99.90
27413;DHT22;14871;52.702;5.230;2023-08-20T02:22:05;20.60;99.90
27413;DHT22;14871;52.702;5.230;2023-08-20T02:24:30;20.60;99.90
27413;DHT22;14871;52.702;5.230;2023-08-20T02:26:56;20.60;99.90
27413;DHT22;14871;52.702;5.230;2023-08-20T02:29:22;20.60;99.90
27413;DHT22;14871;52.702;5.230;2023-08-20T02:31:47;20.50;99.90
27413;DHT22;14871;52.702;5.230;2023-08-20T02:34:13;20.60;99.90
27413;DHT22;14871;52.702;5.230;2023-08-20T02:36:38;20.60;99.90
27413;DHT22;14871;52.702;5.230;2023-08-20T02:39:04;20.60;99.90
27413;DHT22;14871;52.702;5.230;2023-08-20T02:41:36;20.50;99.90
27413;DHT22;14871;52.702;5.230;2023-08-20T02:44:05;20.50;99.90
27413;DHT22;14871;52.702;5.230;2023-08-20T02:46:30;20.50;99.90
27413;DHT22;14871;52.702;5.230;2023-08-20T02:48:56;20.50;99.90
27413;DHT22;14871;52.702;5.230;2023-08-20T02:51:22;20.50;99.90
27413;DHT22;14871;52.702;5.230;2023-08-20T02:53:48;20.60;99.90
27413;DHT22;14871;52.702;5.230;2023-08-20T02:56:13;20.50;99.90
27413;DHT22;14871;52.702;5.230;2023-08-20T02:58:39;20.50;99.90
27413;DHT22;14871;52.702;5.230;2023-08-20T03:01:05;20.50;99.90
27413;DHT22;14871;52.702;5.230;2023-08-20T03:03:31;20.50;99.90
27413;DHT22;14871;52.702;5.230;2023-08-20T03:05:57;20.50;99.90
27413;DHT22;14871;52.702;5.230;2023-08-20T03:08:22;20.50;99.90
27413;DHT22;14871;52.702;5.230;2023-08-20T03:10:48;20.50;99.90
27413;DHT22;14871;52.702;5.230;2023-08-20T03:13:14;20.50;99.90
27413;DHT22;14871;52.702;5.230;2023-08-20T03:15:39;20.40;99.90
27413;DHT22;14871;52.702;5.230;2023-08-20T03:18:05;20.40;99.90
27413;DHT22;14871;52.702;5.230;2023-08-20T03:20:31;20.40;99.90
27413;DHT22;14871;52.702;5.230;2023-08-20T03:22:57;20.30;99.90
27413;DHT22;14871;52.702;5.230;2023-08-20T03:25:23;20.30;99.90
27413;DHT22;14871;52.702;5.230;2023-08-20T03:27:51;20.20;99.90
27413;DHT22;14871;52.702;5.230;2023-08-20T03:30:17;20.20;99.90
27413;DHT22;14871;52.702;5.230;2023-08-20T03:32:43;20.20;99.90
27413;DHT22;14871;52.702;5.230;2023-08-20T03:35:08;20.20;99.90
27413;DHT22;14871;52.702;5.230;2023-08-20T03:37:34;20.10;99.90
27413;DHT22;14871;52.702;5.230;2023-08-20T03:40:00;20.10;99.90
27413;DHT22;14871;52.702;5.230;2023-08-20T03:42:25;20.10;99.90
27413;DHT22;14871;52.702;5.230;2023-08-20T03:44:51;20.00;99.90
27413;DHT22;14871;52.702;5.230;2023-08-20T03:47:17;20.10;99.90
27413;DHT22;14871;52.702;5.230;2023-08-20T03:49:46;20.00;99.90
27413;DHT22;14871;52.702;5.230;2023-08-20T03:52:12;20.10;99.90
27413;DHT22;14871;52.702;5.230;2023-08-20T03:54:37;20.00;99.90
27413;DHT22;14871;52.702;5.230;2023-08-20T03:57:03;20.20;99.90
27413;DHT22;14871;52.702;5.230;2023-08-20T03:59:29;20.20;99.90
27413;DHT22;14871;52.702;5.230;2023-08-20T04:01:55;20.20;99.90
27413;DHT22;14871;52.702;5.230;2023-08-20T04:04:21;20.10;99.90
27413;DHT22;14871;52.702;5.230;2023-08-20T04:06:47;20.10;99.90
27413;DHT22;14871;52.702;5.230;2023-08-20T04:09:12;20.00;99.90
27413;DHT22;14871;52.702;5.230;2023-08-20T04:11:38;20.00;99.90
27413;DHT22;14871;52.702;5.230;2023-08-20T04:14:03;20.00;99.90
27413;DHT22;14871;52.702;5.230;2023-08-20T04:16:30;20.00;99.90
27413;DHT22;14871;52.702;5.230;2023-08-20T04:18:55;20.00;99.90
27413;DHT22;14871;52.702;5.230;2023-08-20T04:21:21;19.90;99.90
27413;DHT22;14871;52.702;5.230;2023-08-20T04:23:47;19.80;99.90
27413;DHT22;14871;52.702;5.230;2023-08-20T04:26:13;19.90;99.90
27413;DHT22;14871;52.702;5.230;2023-08-20T04:28:38;19.80;99.90
27413;DHT22;14871;52.702;5.230;2023-08-20T04:31:04;19.90;99.90
27413;DHT22;14871;52.702;5.230;2023-08-20T04:33:30;19.90;99.90
27413;DHT22;14871;52.702;5.230;2023-08-20T04:35:55;20.00;99.90
27413;DHT22;14871;52.702;5.230;2023-08-20T04:38:21;20.00;99.90
27413;DHT22;14871;52.702;5.230;2023-08-20T04:40:48;20.00;99.90
27413;DHT22;14871;52.702;5.230;2023-08-20T04:43:14;19.90;99.90
27413;DHT22;14871;52.702;5.230;2023-08-20T04:45:40;19.90;99.90
27413;DHT22;14871;52.702;5.230;2023-08-20T04:48:06;19.90;99.90
27413;DHT22;14871;52.702;5.230;2023-08-20T04:50:32;19.90;99.90
27413;DHT22;14871;52.702;5.230;2023-08-20T04:52:57;19.80;99.90
27413;DHT22;14871;52.702;5.230;2023-08-20T04:55:25;19.90;99.90
27413;DHT22;14871;52.702;5.230;2023-08-20T04:57:51;19.90;99.90
27413;DHT22;14871;52.702;5.230;2023-08-20T05:00:17;19.90;99.90
27413;DHT22;14871;52.702;5.230;2023-08-20T05:02:42;19.80;99.90
27413;DHT22;14871;52.702;5.230;2023-08-20T05:05:08;19.80;99.90
27413;DHT22;14871;52.702;5.230;2023-08-20T05:07:34;19.80;99.90
27413;DHT22;14871;52.702;5.230;2023-08-20T05:10:00;19.80;99.90
27413;DHT22;14871;52.702;5.230;2023-08-20T05:12:25;19.90;99.90
27413;DHT22;14871;52.702;5.230;2023-08-20T05:14:51;20.00;99.90
27413;DHT22;14871;52.702;5.230;2023-08-20T05:17:17;20.00;99.90
27413;DHT22;14871;52.702;5.230;2023-08-20T05:19:42;19.90;99.90
27413;DHT22;14871;52.702;5.230;2023-08-20T05:22:08;19.90;99.90
27413;DHT22;14871;52.702;5.230;2023-08-20T05:24:36;19.90;99.90
27413;DHT22;14871;52.702;5.230;2023-08-20T05:27:09;20.00;99.90
27413;DHT22;14871;52.702;5.230;2023-08-20T05:29:36;19.90;99.90
27413;DHT22;14871;52.702;5.230;2023-08-20T05:32:02;19.90;99.90
27413;DHT22;14871;52.702;5.230;2023-08-20T05:34:28;19.80;99.90
27413;DHT22;14871;52.702;5.230;2023-08-20T05:36:53;19.90;99.90
27413;DHT22;14871;52.702;5.230;2023-08-20T05:39:19;20.00;99.90
27413;DHT22;14871;52.702;5.230;2023-08-20T05:41:45;20.00;99.90
27413;DHT22;14871;52.702;5.230;2023-08-20T05:44:10;20.00;99.90
27413;DHT22;14871;52.702;5.230;2023-08-20T05:46:36;20.10;99.90
27413;DHT22;14871;52.702;5.230;2023-08-20T05:49:02;20.10;99.90
27413;DHT22;14871;52.702;5.230;2023-08-20T05:51:28;20.10;99.90
27413;DHT22;14871;52.702;5.230;2023-08-20T05:53:53;20.10;99.90
27413;DHT22;14871;52.702;5.230;2023-08-20T05:56:19;20.20;99.90
27413;DHT22;14871;52.702;5.230;2023-08-20T05:58:44;20.10;99.90
27413;DHT22;14871;52.702;5.230;2023-08-20T06:01:11;20.20;99.90
27413;DHT22;14871;52.702;5.230;2023-08-20T06:03:36;20.10;99.90
27413;DHT22;14871;52.702;5.230;2023-08-20T06:06:02;20.30;99.90
27413;DHT22;14871;52.702;5.230;2023-08-20T06:08:28;20.20;99.90
27413;DHT22;14871;52.702;5.230;2023-08-20T06:10:53;20.20;99.90
27413;DHT22;14871;52.702;5.230;2023-08-20T06:13:19;20.30;99.90
27413;DHT22;14871;52.702;5.230;2023-08-20T06:15:45;20.20;99.90
27413;DHT22;14871;52.702;5.230;2023-08-20T06:18:10;20.30;99.90
27413;DHT22;14871;52.702;5.230;2023-08-20T06:20:36;20.40;99.90
27413;DHT22;14871;52.702;5.230;2023-08-20T06:23:01;20.40;99.90
27413;DHT22;14871;52.702;5.230;2023-08-20T06:25:27;20.30;99.90
27413;DHT22;14871;52.702;5.230;2023-08-20T06:27:52;20.30;99.90
27413;DHT22;14871;52.702;5.230;2023-08-20T06:30:18;20.40;99.90
27413;DHT22;14871;52.702;5.230;2023-08-20T06:32:44;20.50;99.90
27413;DHT22;14871;52.702;5.230;2023-08-20T06:35:10;20.50;99.90
27413;DHT22;14871;52.702;5.230;2023-08-20T06:37:38;20.60;99.90
27413;DHT22;14871;52.702;5.230;2023-08-20T06:40:05;20.50;99.90
27413;DHT22;14871;52.702;5.230;2023-08-20T06:42:30;20.70;99.90
27413;DHT22;14871;52.702;5.230;2023-08-20T06:44:56;20.70;99.90
27413;DHT22;14871;52.702;5.230;2023-08-20T06:47:21;20.70;99.90
27413;DHT22;14871;52.702;5.230;2023-08-20T06:49:47;20.80;99.90
27413;DHT22;14871;52.702;5.230;2023-08-20T06:52:13;20.90;99.90
27413;DHT22;14871;52.702;5.230;2023-08-20T06:54:38;21.00;99.90
27413;DHT22;14871;52.702;5.230;2023-08-20T06:57:04;21.10;99.90
27413;DHT22;14871;52.702;5.230;2023-08-20T06:59:29;21.20;99.90
27413;DHT22;14871;52.702;5.230;2023-08-20T07:01:55;21.30;99.90
27413;DHT22;14871;52.702;5.230;2023-08-20T07:04:21;21.40;99.90
27413;DHT22;14871;52.702;5.230;2023-08-20T07:06:46;21.50;99.90
27413;DHT22;14871;52.702;5.230;2023-08-20T07:09:12;21.60;99.90
27413;DHT22;14871;52.702;5.230;2023-08-20T07:11:37;21.80;99.90
27413;DHT22;14871;52.702;5.230;2023-08-20T07:14:03;21.90;99.90
27413;DHT22;14871;52.702;5.230;2023-08-20T07:16:29;21.90;99.90
27413;DHT22;14871;52.702;5.230;2023-08-20T07:18:54;22.10;99.90
27413;DHT22;14871;52.702;5.230;2023-08-20T07:21:20;22.10;99.90
27413;DHT22;14871;52.702;5.230;2023-08-20T07:23:45;22.50;99.90
27413;DHT22;14871;52.702;5.230;2023-08-20T07:26:11;22.50;99.90
27413;DHT22;14871;52.702;5.230;2023-08-20T07:28:40;22.60;99.90
27413;DHT22;14871;52.702;5.230;2023-08-20T07:31:22;22.50;99.90
27413;DHT22;14871;52.702;5.230;2023-08-20T07:33:49;22.60;99.90
27413;DHT22;14871;52.702;5.230;2023-08-20T07:36:16;22.70;99.90
27413;DHT22;14871;52.702;5.230;2023-08-20T07:38:42;22.80;99.90
27413;DHT22;14871;52.702;5.230;2023-08-20T07:41:08;22.90;99.90
27413;DHT22;14871;52.702;5.230;2023-08-20T07:43:34;23.00;99.90
27413;DHT22;14871;52.702;5.230;2023-08-20T07:46:00;23.20;99.90
27413;DHT22;14871;52.702;5.230;2023-08-20T07:48:26;23.10;99.90
27413;DHT22;14871;52.702;5.230;2023-08-20T07:50:51;23.20;99.90
27413;DHT22;14871;52.702;5.230;2023-08-20T07:53:17;23.40;99.90
27413;DHT22;14871;52.702;5.230;2023-08-20T07:55:42;23.60;99.90
27413;DHT22;14871;52.702;5.230;2023-08-20T07:58:08;23.80;99.90
27413;DHT22;14871;52.702;5.230;2023-08-20T08:00:34;23.90;99.90
27413;DHT22;14871;52.702;5.230;2023-08-20T08:03:00;24.00;99.90
27413;DHT22;14871;52.702;5.230;2023-08-20T08:05:26;24.10;99.90
27413;DHT22;14871;52.702;5.230;2023-08-20T08:07:51;24.10;99.90
27413;DHT22;14871;52.702;5.230;2023-08-20T08:10:17;24.20;99.90
27413;DHT22;14871;52.702;5.230;2023-08-20T08:12:42;24.30;99.90
27413;DHT22;14871;52.702;5.230;2023-08-20T08:15:08;24.30;99.90
27413;DHT22;14871;52.702;5.230;2023-08-20T08:17:34;24.20;99.90
27413;DHT22;14871;52.702;5.230;2023-08-20T08:19:59;24.20;99.90
27413;DHT22;14871;52.702;5.230;2023-08-20T08:22:25;24.20;99.90
27413;DHT22;14871;52.702;5.230;2023-08-20T08:24:51;24.10;99.90
27413;DHT22;14871;52.702;5.230;2023-08-20T08:27:16;24.00;99.90
27413;DHT22;14871;52.702;5.230;2023-08-20T08:29:42;24.00;99.90
27413;DHT22;14871;52.702;5.230;2023-08-20T08:32:07;24.10;99.90
27413;DHT22;14871;52.702;5.230;2023-08-20T08:34:33;24.00;99.90
27413;DHT22;14871;52.702;5.230;2023-08-20T08:36:58;24.30;99.90
27413;DHT22;14871;52.702;5.230;2023-08-20T08:39:24;24.40;99.90
27413;DHT22;14871;52.702;5.230;2023-08-20T08:41:51;24.30;99.90
27413;DHT22;14871;52.702;5.230;2023-08-20T08:44:21;24.40;99.90
27413;DHT22;14871;52.702;5.230;2023-08-20T08:46:49;24.50;99.90
27413;DHT22;14871;52.702;5.230;2023-08-20T08:49:16;24.50;99.90
27413;DHT22;14871;52.702;5.230;2023-08-20T08:51:42;24.30;99.90
27413;DHT22;14871;52.702;5.230;2023-08-20T08:54:10;24.40;99.90
27413;DHT22;14871;52.702;5.230;2023-08-20T08:56:36;24.40;99.90
27413;DHT22;14871;52.702;5.230;2023-08-20T08:59:01;24.50;99.90
27413;DHT22;14871;52.702;5.230;2023-08-20T09:01:28;24.70;99.90
27413;DHT22;14871;52.702;5.230;2023-08-20T09:03:54;24.90;99.90
27413;DHT22;14871;52.702;5.230;2023-08-20T09:06:20;25.00;99.90
27413;DHT22;14871;52.702;5.230;2023-08-20T09:08:45;25.10;99.90
27413;DHT22;14871;52.702;5.230;2023-08-20T09:11:11;25.10;99.90
27413;DHT22;14871;52.702;5.230;2023-08-20T09:13:39;25.00;99.90
27413;DHT22;14871;52.702;5.230;2023-08-20T09:16:06;25.10;99.90
27413;DHT22;14871;52.702;5.230;2023-08-20T09:18:39;25.20;99.90
27413;DHT22;14871;52.702;5.230;2023-08-20T09:21:09;25.10;99.90
27413;DHT22;14871;52.702;5.230;2023-08-20T09:23:36;25.20;99.90
27413;DHT22;14871;52.702;5.230;2023-08-20T09:26:03;25.20;99.90
27413;DHT22;14871;52.702;5.230;2023-08-20T09:28:40;25.20;99.90
27413;DHT22;14871;52.702;5.230;2023-08-20T09:31:06;25.40;99.90
27413;DHT22;14871;52.702;5.230;2023-08-20T09:33:32;25.50;99.90
27413;DHT22;14871;52.702;5.230;2023-08-20T09:35:58;25.30;99.90
27413;DHT22;14871;52.702;5.230;2023-08-20T09:38:24;25.50;99.90
27413;DHT22;14871;52.702;5.230;2023-08-20T09:40:54;25.90;99.90
27413;DHT22;14871;52.702;5.230;2023-08-20T09:43:23;26.10;99.90
27413;DHT22;14871;52.702;5.230;2023-08-20T09:45:54;26.30;99.90
27413;DHT22;14871;52.702;5.230;2023-08-20T09:48:20;26.30;99.90
27413;DHT22;14871;52.702;5.230;2023-08-20T09:50:47;26.40;99.90
27413;DHT22;14871;52.702;5.230;2023-08-20T09:53:26;26.50;99.90
27413;DHT22;14871;52.702;5.230;2023-08-20T09:55:56;26.50;99.90
27413;DHT22;14871;52.702;5.230;2023-08-20T09:58:24;26.70;99.90
27413;DHT22;14871;52.702;5.230;2023-08-20T10:00:52;26.80;99.90
27413;DHT22;14871;52.702;5.230;2023-08-20T10:03:20;27.00;99.90
27413;DHT22;14871;52.702;5.230;2023-08-20T10:05:48;27.00;99.90
27413;DHT22;14871;52.702;5.230;2023-08-20T10:08:15;27.00;99.90
27413;DHT22;14871;52.702;5.230;2023-08-20T10:10:40;27.00;99.90
27413;DHT22;14871;52.702;5.230;2023-08-20T10:13:07;27.00;99.90
27413;DHT22;14871;52.702;5.230;2023-08-20T10:15:33;27.20;99.90
27413;DHT22;14871;52.702;5.230;2023-08-20T10:18:02;27.50;99.90
27413;DHT22;14871;52.702;5.230;2023-08-20T10:20:31;27.50;99.90
27413;DHT22;14871;52.702;5.230;2023-08-20T10:23:00;27.80;99.90
27413;DHT22;14871;52.702;5.230;2023-08-20T10:25:29;27.80;99.90
27413;DHT22;14871;52.702;5.230;2023-08-20T10:28:11;27.90;99.90
27413;DHT22;14871;52.702;5.230;2023-08-20T10:30:37;28.20;99.90
27413;DHT22;14871;52.702;5.230;2023-08-20T10:33:03;28.10;99.90
27413;DHT22;14871;52.702;5.230;2023-08-20T10:35:47;27.90;99.90
27413;DHT22;14871;52.702;5.230;2023-08-20T10:38:14;28.00;99.90
27413;DHT22;14871;52.702;5.230;2023-08-20T10:40:57;28.00;99.90
27413;DHT22;14871;52.702;5.230;2023-08-20T10:43:29;27.80;99.90
27413;DHT22;14871;52.702;5.230;2023-08-20T10:46:21;27.90;99.90
27413;DHT22;14871;52.702;5.230;2023-08-20T10:48:54;28.10;99.90
27413;DHT22;14871;52.702;5.230;2023-08-20T10:51:36;28.20;99.90
27413;DHT22;14871;52.702;5.230;2023-08-20T10:59:23;28.30;99.90
27413;DHT22;14871;52.702;5.230;2023-08-20T11:01:52;28.60;99.90
27413;DHT22;14871;52.702;5.230;2023-08-20T11:04:19;28.60;99.90
27413;DHT22;14871;52.702;5.230;2023-08-20T11:06:46;28.40;99.90
27413;DHT22;14871;52.702;5.230;2023-08-20T11:09:12;28.50;99.90
27413;DHT22;14871;52.702;5.230;2023-08-20T11:11:42;28.20;99.90
27413;DHT22;14871;52.702;5.230;2023-08-20T11:14:15;28.30;99.90
27413;DHT22;14871;52.702;5.230;2023-08-20T11:16:42;28.50;99.90
27413;DHT22;14871;52.702;5.230;2023-08-20T11:19:09;28.60;99.90
27413;DHT22;14871;52.702;5.230;2023-08-20T11:21:35;28.60;99.90
27413;DHT22;14871;52.702;5.230;2023-08-20T11:24:01;28.60;99.40
27413;DHT22;14871;52.702;5.230;2023-08-20T11:26:27;28.60;99.60
27413;DHT22;14871;52.702;5.230;2023-08-20T11:28:53;28.60;99.90
27413;DHT22;14871;52.702;5.230;2023-08-20T11:31:19;28.60;99.50
27413;DHT22;14871;52.702;5.230;2023-08-20T11:33:45;28.60;99.10
27413;DHT22;14871;52.702;5.230;2023-08-20T11:36:11;28.70;99.50
27413;DHT22;14871;52.702;5.230;2023-08-20T11:38:37;28.80;98.70
27413;DHT22;14871;52.702;5.230;2023-08-20T11:41:03;28.90;99.00
27413;DHT22;14871;52.702;5.230;2023-08-20T11:43:29;29.10;99.30
27413;DHT22;14871;52.702;5.230;2023-08-20T11:45:55;29.30;98.30
27413;DHT22;14871;52.702;5.230;2023-08-20T11:48:21;29.30;98.80
27413;DHT22;14871;52.702;5.230;2023-08-20T11:50:47;29.70;98.00
27413;DHT22;14871;52.702;5.230;2023-08-20T11:53:13;29.80;97.90
27413;DHT22;14871;52.702;5.230;2023-08-20T11:55:39;29.90;97.00
27413;DHT22;14871;52.702;5.230;2023-08-20T11:58:09;30.10;96.50
27413;DHT22;14871;52.702;5.230;2023-08-20T12:00:35;30.00;95.20
27413;DHT22;14871;52.702;5.230;2023-08-20T12:03:01;30.20;95.70
27413;DHT22;14871;52.702;5.230;2023-08-20T12:05:30;30.20;94.50
27413;DHT22;14871;52.702;5.230;2023-08-20T12:08:03;30.10;94.70
27413;DHT22;14871;52.702;5.230;2023-08-20T12:10:30;30.20;93.60
27413;DHT22;14871;52.702;5.230;2023-08-20T12:12:57;30.10;93.70
27413;DHT22;14871;52.702;5.230;2023-08-20T12:15:23;30.20;95.20
27413;DHT22;14871;52.702;5.230;2023-08-20T12:18:00;30.40;94.70
27413;DHT22;14871;52.702;5.230;2023-08-20T12:20:31;30.70;91.90
27413;DHT22;14871;52.702;5.230;2023-08-20T12:22:59;30.80;92.50
27413;DHT22;14871;52.702;5.230;2023-08-20T12:25:26;30.80;92.50
27413;DHT22;14871;52.702;5.230;2023-08-20T12:27:51;31.00;91.20
27413;DHT22;14871;52.702;5.230;2023-08-20T12:30:17;30.70;92.50
27413;DHT22;14871;52.702;5.230;2023-08-20T12:32:42;30.90;91.40
27413;DHT22;14871;52.702;5.230;2023-08-20T12:35:08;30.70;90.90
27413;DHT22;14871;52.702;5.230;2023-08-20T12:37:34;30.60;91.10
27413;DHT22;14871;52.702;5.230;2023-08-20T12:39:59;30.40;91.20
27413;DHT22;14871;52.702;5.230;2023-08-20T12:42:25;30.50;91.40
27413;DHT22;14871;52.702;5.230;2023-08-20T12:44:50;30.40;91.60
27413;DHT22;14871;52.702;5.230;2023-08-20T12:47:16;30.40;90.80
27413;DHT22;14871;52.702;5.230;2023-08-20T12:49:41;30.20;91.30
27413;DHT22;14871;52.702;5.230;2023-08-20T12:52:07;29.60;92.90
27413;DHT22;14871;52.702;5.230;2023-08-20T12:54:33;29.70;93.60
27413;DHT22;14871;52.702;5.230;2023-08-20T12:56:59;29.90;93.60
27413;DHT22;14871;52.702;5.230;2023-08-20T12:59:24;30.10;91.60
27413;DHT22;14871;52.702;5.230;2023-08-20T13:01:50;30.40;91.60
27413;DHT22;14871;52.702;5.230;2023-08-20T13:04:16;30.60;91.00
27413;DHT22;14871;52.702;5.230;2023-08-20T13:06:42;30.60;91.50
27413;DHT22;14871;52.702;5.230;2023-08-20T13:09:08;30.80;90.40
27413;DHT22;14871;52.702;5.230;2023-08-20T13:11:35;30.70;90.50
27413;DHT22;14871;52.702;5.230;2023-08-20T13:14:02;30.60;90.60
27413;DHT22;14871;52.702;5.230;2023-08-20T13:16:28;30.70;90.60
27413;DHT22;14871;52.702;5.230;2023-08-20T13:18:54;30.90;90.10
27413;DHT22;14871;52.702;5.230;2023-08-20T13:21:20;30.60;90.60
27413;DHT22;14871;52.702;5.230;2023-08-20T13:23:47;30.70;90.60
27413;DHT22;14871;52.702;5.230;2023-08-20T13:26:12;30.60;90.50
27413;DHT22;14871;52.702;5.230;2023-08-20T13:28:38;30.60;90.70
27413;DHT22;14871;52.702;5.230;2023-08-20T13:31:03;30.70;90.60
27413;DHT22;14871;52.702;5.230;2023-08-20T13:33:29;30.90;90.40
27413;DHT22;14871;52.702;5.230;2023-08-20T13:35:54;31.10;90.60
27413;DHT22;14871;52.702;5.230;2023-08-20T13:38:21;31.10;90.50
27413;DHT22;14871;52.702;5.230;2023-08-20T13:40:47;30.90;90.40
27413;DHT22;14871;52.702;5.230;2023-08-20T13:43:14;31.10;89.60
27413;DHT22;14871;52.702;5.230;2023-08-20T13:45:39;31.20;88.70
27413;DHT22;14871;52.702;5.230;2023-08-20T13:48:05;31.00;88.20
27413;DHT22;14871;52.702;5.230;2023-08-20T13:50:31;30.60;89.80
27413;DHT22;14871;52.702;5.230;2023-08-20T13:52:56;30.70;89.90
27413;DHT22;14871;52.702;5.230;2023-08-20T13:55:22;30.50;90.40
27413;DHT22;14871;52.702;5.230;2023-08-20T13:57:48;30.40;90.70
27413;DHT22;14871;52.702;5.230;2023-08-20T14:00:13;30.60;90.10
27413;DHT22;14871;52.702;5.230;2023-08-20T14:02:39;30.50;90.50
27413;DHT22;14871;52.702;5.230;2023-08-20T14:05:05;30.60;90.00
27413;DHT22;14871;52.702;5.230;2023-08-20T14:07:31;30.40;90.70
27413;DHT22;14871;52.702;5.230;2023-08-20T14:09:58;30.40;90.40
27413;DHT22;14871;52.702;5.230;2023-08-20T14:12:25;30.70;90.10
27413;DHT22;14871;52.702;5.230;2023-08-20T14:14:50;30.60;89.50
27413;DHT22;14871;52.702;5.230;2023-08-20T14:17:16;30.50;90.20
27413;DHT22;14871;52.702;5.230;2023-08-20T14:19:42;30.40;90.60
27413;DHT22;14871;52.702;5.230;2023-08-20T14:22:07;30.40;89.60
27413;DHT22;14871;52.702;5.230;2023-08-20T14:24:33;30.60;88.10
27413;DHT22;14871;52.702;5.230;2023-08-20T14:26:58;30.30;89.10
27413;DHT22;14871;52.702;5.230;2023-08-20T14:29:24;30.20;90.10
27413;DHT22;14871;52.702;5.230;2023-08-20T14:31:50;30.30;90.20
27413;DHT22;14871;52.702;5.230;2023-08-20T14:34:15;30.50;90.00
27413;DHT22;14871;52.702;5.230;2023-08-20T14:36:41;30.40;89.50
27413;DHT22;14871;52.702;5.230;2023-08-20T14:39:06;30.50;89.00
27413;DHT22;14871;52.702;5.230;2023-08-20T14:41:32;30.50;88.60
27413;DHT22;14871;52.702;5.230;2023-08-20T14:43:59;30.90;84.90
27413;DHT22;14871;52.702;5.230;2023-08-20T14:46:24;30.60;84.30
27413;DHT22;14871;52.702;5.230;2023-08-20T14:48:50;30.40;84.90
27413;DHT22;14871;52.702;5.230;2023-08-20T14:51:16;30.10;87.20
27413;DHT22;14871;52.702;5.230;2023-08-20T14:53:41;30.20;87.10
27413;DHT22;14871;52.702;5.230;2023-08-20T14:56:07;30.20;86.50
27413;DHT22;14871;52.702;5.230;2023-08-20T14:58:32;30.10;85.20
27413;DHT22;14871;52.702;5.230;2023-08-20T15:00:59;30.10;84.70
27413;DHT22;14871;52.702;5.230;2023-08-20T15:03:24;30.30;83.70
27413;DHT22;14871;52.702;5.230;2023-08-20T15:05:50;30.20;84.90
27413;DHT22;14871;52.702;5.230;2023-08-20T15:08:15;30.20;83.60
27413;DHT22;14871;52.702;5.230;2023-08-20T15:10:41;30.10;83.50
27413;DHT22;14871;52.702;5.230;2023-08-20T15:13:07;30.10;85.40
27413;DHT22;14871;52.702;5.230;2023-08-20T15:15:32;30.10;85.60
27413;DHT22;14871;52.702;5.230;2023-08-20T15:17:58;30.20;85.70
27413;DHT22;14871;52.702;5.230;2023-08-20T15:20:23;30.40;83.90
27413;DHT22;14871;52.702;5.230;2023-08-20T15:22:49;30.10;83.50
27413;DHT22;14871;52.702;5.230;2023-08-20T15:25:14;30.00;83.10
27413;DHT22;14871;52.702;5.230;2023-08-20T15:27:40;29.90;83.10
27413;DHT22;14871;52.702;5.230;2023-08-20T15:30:07;30.00;83.90
27413;DHT22;14871;52.702;5.230;2023-08-20T15:32:33;30.10;84.10